Share

Katmai National Park, AK

6:32 AM AKDT on April 23, 2014 (GMT -0800)
King Salmon (PAKN) Elev 46 ft | 58.68 °N, 156.66 °W | Change Station

Current weather conditions updated 38 minutes ago

Clear
Clear
34 °F
Feels Like 31 °F
N
4
Wind Variable Wind from SE
Sunrise 6:51 AM
Sunset 10:00 PM
Moon Waning Crescent

Today is forecast to be nearly the same temperature as yesterday.

Pressure 29.61 in
Visibility 10.0 miles
Clouds Clear
Windchill 31 °F
Dew Point 29 °F
Humidity 82%
Rainfall 0.00 in
Snow Depth Not available.
UV 0 out of 16
Pollen Not available.
Air Quality Not available.
Flu Activity Sporadic
METAR PAKN 231354Z 13003KT 10SM CLR 01/M02 A2961 RMK AO2 SLP027 T00111017

More Conditions Fewer Conditions

Pressure 29.61 in
Visibility 10.0 miles
Clouds Clear
Windchill 31 °F
Dew Point 29 °F
Humidity 82%
Rainfall 0.00 in
Snow Depth Not available.
UV 0 out of 16
Pollen Not available.
Air Quality Not available.
Flu Activity Sporadic
METAR PAKN 231354Z 13003KT 10SM CLR 01/M02 A2961 RMK AO2 SLP027 T00111017

More Conditions Fewer Conditions

10-Day Weather Forecast

Almanac

Astronomy

Apr. 23, 2014 Rise Set
Actual Time 6:51 AM AKDT 10:00 PM AKDT
Civil Twilight 6:04 AM AKDT 10:47 PM AKDT
Nautical Twilight 5:00 AM AKDT 11:52 PM AKDT
Astronomical Twilight 3:14 AM AKDT 1:48 AM AKDT
Moon 4:51 AM AKDT 3:04 PM AKDT
Length of Visible Light 16h 42m
Length of Day
15h 08m
Tomorrow will be 5m 1s longer.
Waning Crescent, 36% of the Moon is Illuminated
Today
Waning Crescent
Apr 29
New
May 6
First Quarter
May 14
Full
May 21
Last Quarter

Today's Extremes

State Highs State Lows

Community

  • spring flowers
    spring flowers
  • Earth Day Spectrum Ove' Blue
    Earth Day Spectrum Ove' Blue
  • BARN B&W
    BARN B&W
  • April Sunset
    April Sunset
  • Waiting..
    Waiting..

WunderPhotos

Upload Photos

1,704,296 photos uploaded!

Nearby

Snow Depth

Station Depth Elevation
Port Graham 3 in 300 ft
Mcneil Canyon 4 in 1320 ft
MF Bradley River 18 in 2300 ft
Nuka Glacier 28 in 1250 ft
Cooper Lake 18 in 1200 ft

Coastal Water Temperatures

Place Temperature
No Stations Reporting

Earthquake Activity

City Distance Mag. Time & Date
No recent earthquake activity has been reported nearby.
Minimum magnitude displayed is 2.5.

Nearby Weather Stations

Station Location Temp. Windchill Dew Point Humidity Wind Precip. Elev Updated Type
MesoWest LOWER MULCHATNA , South Naknek, AK 32 °F 32 °F - - North  at  - 0.00 in / hr 319 ft 5:00 AM AKDT MADIS

Show More Stations Show Fewer Stations

What do you think?

We're not finished. Please let us know what you like, what you don't like, and what you are still missing.